SGCO/CIO METAR and TAF weather

Enter ICAO airport designator
Station Type Date Time Source
SGCO METAR 2022/06/30 12:00 UTC NOAA

SGCO 301200Z 09005KT CAVOK 15/13 Q1015


Station Type Date Time Source
SGCO Decoded METAR 2022/06/30 12:00 UTC NOAA

Concepcion, Paraguay (SGCO) 23-25S 057-18W 74M
Jun 30, 2022 - 08:00 AM EDT / 2022.06.30 1200 UTC
Wind: from the E (090 degrees) at 6 MPH (5 KT):0
Visibility: greater than 7 mile(s):0
Temperature: 59 F (15 C)
Dew Point: 55 F (13 C)
Relative Humidity: 87%
Pressure (altimeter): 29.97 in. Hg (1015 hPa)
ob: SGCO 301200Z 09005KT CAVOK 15/13 Q1015
cycle: 12

Station Type Date Time Source
SGCO TAF 2022/06/30 12:00 UTC NOAA

TAF SGCO 301045Z 3012/0112 VRB05KT CAVOK TX28/3019Z TN14/0110Z

Example: see airport list